createdAt,value
2023-01-17T00:02:19.248Z,9.93
2023-01-17T00:05:05.525Z,8.70
2023-01-17T00:07:51.819Z,7.67
2023-01-17T00:10:23.290Z,6.72
2023-01-17T00:13:00.733Z,7.20
2023-01-17T00:15:30.740Z,7.85
2023-01-17T00:17:58.756Z,8.85
2023-01-17T00:20:48.323Z,9.85
2023-01-17T00:23:39.114Z,9.70
2023-01-17T00:26:14.721Z,8.75
2023-01-17T00:28:44.330Z,8.60
2023-01-17T00:31:14.075Z,7.30
2023-01-17T00:33:41.831Z,7.65
2023-01-17T00:36:10.544Z,7.53
2023-01-17T00:38:40.002Z,9.45
2023-01-17T00:41:11.136Z,8.90
2023-01-17T00:43:57.390Z,10.15
2023-01-17T00:46:44.175Z,9.40
2023-01-17T00:49:30.148Z,7.85
2023-01-17T00:52:16.404Z,6.28
2023-01-17T00:55:02.703Z,7.67
2023-01-17T00:57:48.950Z,8.05
2023-01-17T01:00:37.780Z,7.58
2023-01-17T01:03:30.053Z,7.67
2023-01-17T01:06:17.270Z,7.17
2023-01-17T01:09:03.104Z,7.45
2023-01-17T01:11:49.526Z,7.60
2023-01-17T01:14:35.669Z,8.13
2023-01-17T01:17:21.877Z,8.83
2023-01-17T01:20:08.063Z,7.85
2023-01-17T01:22:54.034Z,7.70
2023-01-17T01:25:40.108Z,14.05
2023-01-17T01:28:33.140Z,8.93
2023-01-17T01:31:24.085Z,7.92
2023-01-17T01:33:55.752Z,8.23
2023-01-17T01:36:35.963Z,8.38
2023-01-17T01:39:21.264Z,10.55
2023-01-17T01:42:05.349Z,11.80
2023-01-17T01:44:44.860Z,10.55
2023-01-17T01:47:40.492Z,9.38
2023-01-17T01:50:14.640Z,7.33
2023-01-17T01:52:48.816Z,7.75
2023-01-17T01:55:33.459Z,7.40
2023-01-17T01:58:21.041Z,7.70
2023-01-17T02:00:51.790Z,8.20
2023-01-17T02:03:30.681Z,8.28
2023-01-17T02:06:21.194Z,7.42
2023-01-17T02:08:54.921Z,7.05
2023-01-17T02:11:37.738Z,7.00
2023-01-17T02:14:14.090Z,6.83
2023-01-17T02:17:12.295Z,7.12
2023-01-17T02:20:20.536Z,6.90
2023-01-17T02:23:37.855Z,6.40
2023-01-17T02:26:50.139Z,6.12
2023-01-17T02:29:57.650Z,9.33
2023-01-17T02:32:39.495Z,5.90
2023-01-17T02:35:15.899Z,6.22
2023-01-17T02:38:13.423Z,6.17
2023-01-17T02:40:55.090Z,4.97
2023-01-17T02:43:24.120Z,5.87
2023-01-17T02:45:51.642Z,5.95
2023-01-17T02:48:23.846Z,6.00
2023-01-17T02:51:12.303Z,5.90
2023-01-17T02:54:05.115Z,5.53
2023-01-17T02:56:40.551Z,6.45
2023-01-17T02:59:13.739Z,6.35
2023-01-17T03:01:49.916Z,7.25
2023-01-17T03:04:31.450Z,6.92
2023-01-17T03:07:03.522Z,6.90
2023-01-17T03:09:32.599Z,6.37
2023-01-17T03:12:02.344Z,6.50
2023-01-17T03:14:33.311Z,6.22
2023-01-17T03:17:00.767Z,6.65
2023-01-17T03:19:28.227Z,6.50
2023-01-17T03:21:55.972Z,6.12
2023-01-17T03:24:23.611Z,7.58
2023-01-17T03:26:51.300Z,8.05
2023-01-17T03:29:18.543Z,9.10
2023-01-17T03:31:46.207Z,7.55
2023-01-17T03:34:13.963Z,7.58
2023-01-17T03:36:41.669Z,8.50
2023-01-17T03:39:09.499Z,7.65
2023-01-17T03:41:36.975Z,6.70
2023-01-17T03:44:05.133Z,7.15
2023-01-17T03:46:32.576Z,7.80
2023-01-17T03:49:00.396Z,11.57
2023-01-17T03:51:28.115Z,9.98
2023-01-17T03:53:59.061Z,14.65
2023-01-17T03:56:26.580Z,11.05
2023-01-17T03:59:00.218Z,7.20
2023-01-17T04:01:34.154Z,7.55
2023-01-17T04:04:10.243Z,6.97
2023-01-17T04:06:47.493Z,6.08
2023-01-17T04:09:21.248Z,5.28
2023-01-17T04:14:23.545Z,5.62
2023-01-17T04:16:51.225Z,7.12
2023-01-17T04:19:19.285Z,7.80
2023-01-17T04:21:46.990Z,8.83
2023-01-17T04:24:15.863Z,10.78
2023-01-17T04:26:44.027Z,10.78
2023-01-17T04:29:14.127Z,10.75
2023-01-17T04:31:51.132Z,10.55
2023-01-17T04:34:25.353Z,9.68
2023-01-17T04:36:56.303Z,9.88
2023-01-17T04:39:24.040Z,14.33
2023-01-17T04:41:51.633Z,10.23
2023-01-17T04:44:19.388Z,9.08
2023-01-17T04:46:46.825Z,11.30
2023-01-17T04:49:14.491Z,9.58
2023-01-17T04:51:42.522Z,10.80
2023-01-17T04:54:09.903Z,11.08
2023-01-17T04:56:37.603Z,10.93
2023-01-17T04:59:05.126Z,10.82
2023-01-17T05:01:32.751Z,11.00
2023-01-17T05:04:00.190Z,12.25
2023-01-17T05:06:27.731Z,13.50
2023-01-17T05:08:55.312Z,11.40
2023-01-17T05:11:22.891Z,10.28
2023-01-17T05:13:50.614Z,12.13
2023-01-17T05:16:19.310Z,11.22
2023-01-17T05:18:46.986Z,11.90
2023-01-17T05:21:14.712Z,20.05
2023-01-17T05:23:42.561Z,31.12
2023-01-17T05:26:10.238Z,27.07
2023-01-17T05:28:37.809Z,23.50
2023-01-17T05:31:05.887Z,17.95
2023-01-17T05:33:33.421Z,15.55
2023-01-17T05:36:01.236Z,13.60
2023-01-17T05:38:29.076Z,13.62
2023-01-17T05:41:04.328Z,19.23
2023-01-17T05:43:32.050Z,14.70
2023-01-17T05:45:59.793Z,13.30
2023-01-17T05:48:27.340Z,12.68
2023-01-17T05:50:55.557Z,13.60
2023-01-17T05:53:23.094Z,14.15
2023-01-17T05:55:50.828Z,15.80
2023-01-17T05:58:21.718Z,18.12
2023-01-17T06:00:49.758Z,17.57
2023-01-17T06:03:17.689Z,18.73
2023-01-17T06:05:46.393Z,19.52
2023-01-17T06:08:13.891Z,17.35
2023-01-17T06:10:41.494Z,14.75
2023-01-17T06:13:13.733Z,13.88
2023-01-17T06:15:41.670Z,14.33
2023-01-17T06:18:13.357Z,16.70
2023-01-17T06:20:41.612Z,16.48
2023-01-17T06:23:13.777Z,15.53
2023-01-17T06:25:44.218Z,16.73
2023-01-17T06:28:15.672Z,16.48
2023-01-17T06:30:44.088Z,17.40
2023-01-17T06:33:12.795Z,19.90
2023-01-17T06:35:50.632Z,19.98
2023-01-17T06:38:18.862Z,20.35
2023-01-17T06:40:46.558Z,16.60
2023-01-17T06:43:14.232Z,13.88
2023-01-17T06:45:41.898Z,13.50
2023-01-17T06:48:09.723Z,12.05
2023-01-17T06:50:37.744Z,12.82
2023-01-17T06:53:06.826Z,11.97
2023-01-17T06:55:36.827Z,11.70
2023-01-17T06:58:04.619Z,12.00
2023-01-17T07:00:34.410Z,13.25
2023-01-17T07:03:02.771Z,14.93
2023-01-17T07:05:30.660Z,21.10
2023-01-17T07:07:58.117Z,20.35
2023-01-17T07:10:25.766Z,19.40
2023-01-17T07:12:59.749Z,21.12
2023-01-17T07:15:27.562Z,22.20
2023-01-17T07:17:55.209Z,23.07
2023-01-17T07:20:22.703Z,23.02
2023-01-17T07:22:50.173Z,25.62
2023-01-17T07:25:19.599Z,26.57
2023-01-17T07:27:47.412Z,28.25
2023-01-17T07:30:15.547Z,27.55
2023-01-17T07:32:43.495Z,20.35
2023-01-17T07:35:10.859Z,18.80
2023-01-17T07:37:39.162Z,16.32
2023-01-17T07:40:07.846Z,14.50
2023-01-17T07:42:35.419Z,13.40
2023-01-17T07:45:03.282Z,12.78
2023-01-17T07:47:32.801Z,14.28
2023-01-17T07:50:01.395Z,13.72
2023-01-17T07:52:28.938Z,13.28
2023-01-17T07:54:56.640Z,28.85
2023-01-17T07:57:24.404Z,42.30
2023-01-17T07:59:52.243Z,30.85
2023-01-17T08:02:23.303Z,22.20
2023-01-17T08:04:51.068Z,18.80
2023-01-17T08:07:18.756Z,18.12
2023-01-17T08:09:48.148Z,15.65
2023-01-17T08:12:16.706Z,11.12
2023-01-17T08:14:44.383Z,17.62
2023-01-17T08:17:17.603Z,18.62
2023-01-17T08:19:45.322Z,12.78
2023-01-17T08:22:12.742Z,10.95
2023-01-17T08:24:41.587Z,12.00
2023-01-17T08:27:09.421Z,21.87
2023-01-17T08:29:36.962Z,24.02
2023-01-17T08:32:04.846Z,19.17
2023-01-17T08:34:33.754Z,11.12
2023-01-17T08:37:01.564Z,11.97
2023-01-17T08:39:29.176Z,14.00
2023-01-17T08:41:56.953Z,12.93
2023-01-17T08:44:24.781Z,12.07
2023-01-17T08:46:52.554Z,16.12
2023-01-17T08:49:20.234Z,16.15
2023-01-17T08:51:47.786Z,13.65
2023-01-17T08:54:16.136Z,14.53
2023-01-17T08:56:43.842Z,18.10
2023-01-17T08:59:11.904Z,20.52
2023-01-17T09:01:44.495Z,16.80
2023-01-17T09:04:12.659Z,13.47
2023-01-17T09:06:44.779Z,13.72
2023-01-17T09:09:13.228Z,14.45
2023-01-17T09:11:41.139Z,31.15
2023-01-17T09:14:13.426Z,22.02
2023-01-17T09:16:41.040Z,17.52
2023-01-17T09:19:09.815Z,23.35
2023-01-17T09:21:37.537Z,17.23
2023-01-17T09:24:05.513Z,13.70
2023-01-17T09:26:33.355Z,25.60
2023-01-17T09:29:01.055Z,34.45
2023-01-17T09:31:28.630Z,24.02
2023-01-17T09:33:58.240Z,22.60
2023-01-17T09:36:29.362Z,23.52
2023-01-17T09:38:58.641Z,22.25
2023-01-17T09:42:00.123Z,21.68
2023-01-17T09:44:35.942Z,20.10
2023-01-17T09:47:39.721Z,37.03
2023-01-17T09:50:33.415Z,28.60
2023-01-17T09:53:06.026Z,26.97
2023-01-17T09:55:59.053Z,31.00
2023-01-17T09:58:38.156Z,29.63
2023-01-17T10:01:23.394Z,25.88
2023-01-17T10:04:20.968Z,21.37
2023-01-17T10:07:09.043Z,20.72
2023-01-17T10:10:04.821Z,22.90
2023-01-17T10:16:10.251Z,22.42
2023-01-17T10:19:24.567Z,27.02
2023-01-17T10:22:03.748Z,18.17
2023-01-17T10:25:00.574Z,16.60
2023-01-17T10:27:36.646Z,16.37
2023-01-17T10:30:24.111Z,17.55
2023-01-17T10:32:52.010Z,17.95
2023-01-17T10:35:27.072Z,20.17
2023-01-17T10:37:58.165Z,28.23
2023-01-17T10:40:50.786Z,26.73
2023-01-17T10:43:29.744Z,27.35
2023-01-17T10:45:58.041Z,27.52
2023-01-17T10:48:38.838Z,33.18
2023-01-17T10:51:17.873Z,32.95
2023-01-17T10:54:01.842Z,21.65
2023-01-17T10:56:30.413Z,23.98
2023-01-17T10:59:21.934Z,15.95
2023-01-17T11:01:51.220Z,14.75
2023-01-17T11:04:27.127Z,18.48
2023-01-17T11:07:18.656Z,19.98
2023-01-17T11:09:55.532Z,14.10
2023-01-17T11:12:45.102Z,9.95
2023-01-17T11:15:19.259Z,13.15
2023-01-17T11:17:55.281Z,9.65
2023-01-17T11:20:45.567Z,6.53
2023-01-17T11:23:21.496Z,7.53
2023-01-17T11:26:01.948Z,5.70
2023-01-17T11:28:32.797Z,5.22
2023-01-17T11:31:08.397Z,5.20
2023-01-17T11:33:51.164Z,4.80
2023-01-17T11:36:31.083Z,7.58
2023-01-17T11:39:18.759Z,5.50
2023-01-17T11:41:47.599Z,5.67
2023-01-17T11:44:35.808Z,5.83
2023-01-17T11:47:16.413Z,4.92
2023-01-17T11:49:47.000Z,4.22
2023-01-17T11:52:33.051Z,5.30
2023-01-17T11:55:00.865Z,4.40
2023-01-17T11:57:32.751Z,4.72
2023-01-17T12:00:20.585Z,4.17
2023-01-17T12:03:05.511Z,3.00
2023-01-17T12:05:53.200Z,3.40
2023-01-17T12:08:57.577Z,4.03
2023-01-17T12:12:07.826Z,4.15
2023-01-17T12:15:13.139Z,3.02
2023-01-17T12:18:05.620Z,2.85
2023-01-17T12:20:55.313Z,3.72
2023-01-17T12:23:47.798Z,2.92
2023-01-17T12:26:36.396Z,3.10
2023-01-17T12:29:32.038Z,2.62
2023-01-17T12:32:32.002Z,2.40
2023-01-17T12:35:07.924Z,2.17
2023-01-17T12:37:45.472Z,2.77
2023-01-17T12:40:24.028Z,2.60
2023-01-17T12:43:19.226Z,3.30
2023-01-17T12:45:49.409Z,2.20
2023-01-17T12:48:20.667Z,2.20
2023-01-17T12:50:56.777Z,1.98
2023-01-17T12:53:52.383Z,2.00
2023-01-17T12:56:37.133Z,2.52
2023-01-17T12:59:25.870Z,3.08
2023-01-17T13:01:59.005Z,2.35
2023-01-17T13:04:46.881Z,3.10
2023-01-17T13:07:24.683Z,2.70
2023-01-17T13:10:03.656Z,2.70
2023-01-17T13:12:33.569Z,3.87
2023-01-17T13:15:03.265Z,6.65
2023-01-17T13:17:52.962Z,8.68
2023-01-17T13:20:32.385Z,5.75
2023-01-17T13:23:51.259Z,4.40
2023-01-17T13:26:50.840Z,5.40
2023-01-17T13:29:52.732Z,3.85
2023-01-17T13:32:45.713Z,7.55
2023-01-17T13:35:28.115Z,4.30
2023-01-17T13:38:24.587Z,3.42
2023-01-17T13:41:00.866Z,3.40
2023-01-17T13:43:39.196Z,3.20
2023-01-17T13:46:07.778Z,3.15
2023-01-17T13:48:37.829Z,4.25
2023-01-17T13:51:08.639Z,4.08
2023-01-17T13:53:44.443Z,3.05
2023-01-17T13:56:23.944Z,3.12
2023-01-17T13:59:01.666Z,4.08
2023-01-17T14:01:46.556Z,3.37
2023-01-17T14:04:14.349Z,3.75
2023-01-17T14:06:46.314Z,3.10
2023-01-17T14:09:28.217Z,2.85
2023-01-17T14:12:19.785Z,3.70
2023-01-17T14:14:51.401Z,4.45
2023-01-17T14:17:26.340Z,4.47
2023-01-17T14:20:11.968Z,4.90
2023-01-17T14:22:50.666Z,6.35
2023-01-17T14:25:24.520Z,8.13
2023-01-17T14:27:56.851Z,33.55
2023-01-17T14:30:34.643Z,33.60
2023-01-17T14:33:29.099Z,26.23
2023-01-17T14:36:04.750Z,13.00
2023-01-17T14:38:34.272Z,10.50
2023-01-17T14:41:07.237Z,11.00
2023-01-17T14:43:39.034Z,11.57
2023-01-17T14:46:30.606Z,9.13
2023-01-17T14:49:09.409Z,9.75
2023-01-17T14:51:38.379Z,3.85
2023-01-17T14:54:17.609Z,3.72
2023-01-17T14:56:47.173Z,6.75
2023-01-17T14:59:21.534Z,6.90
2023-01-17T15:02:08.640Z,8.13
2023-01-17T15:04:33.647Z,23.00
2023-01-17T15:07:01.353Z,28.50
2023-01-17T15:09:34.239Z,39.73
2023-01-17T15:12:02.409Z,37.67
2023-01-17T15:14:34.557Z,31.40
2023-01-17T15:17:23.827Z,14.30
2023-01-17T15:20:01.120Z,9.20
2023-01-17T15:22:29.490Z,8.63
2023-01-17T15:24:58.053Z,17.82
2023-01-17T15:27:26.206Z,11.22
2023-01-17T15:29:56.005Z,8.78
2023-01-17T15:32:30.068Z,7.58
2023-01-17T15:35:00.608Z,12.03
2023-01-17T15:37:33.325Z,15.85
2023-01-17T15:40:23.577Z,18.45
2023-01-17T15:42:56.124Z,17.00
2023-01-17T15:45:28.407Z,14.25
2023-01-17T15:47:57.075Z,12.70
2023-01-17T15:50:31.616Z,12.00
2023-01-17T15:53:04.249Z,8.63
2023-01-17T15:55:34.886Z,7.00
2023-01-17T15:58:04.982Z,6.95
2023-01-17T16:00:41.325Z,13.15
2023-01-17T16:03:29.299Z,18.12
2023-01-17T16:06:02.504Z,22.85
2023-01-17T16:08:39.216Z,33.33
2023-01-17T16:11:11.107Z,25.43
2023-01-17T16:13:40.907Z,22.77
2023-01-17T16:16:14.141Z,21.02
2023-01-17T16:18:42.536Z,18.42
2023-01-17T16:21:23.901Z,19.37
2023-01-17T16:23:51.862Z,23.22
2023-01-17T16:26:19.573Z,23.05
2023-01-17T16:28:48.323Z,18.07
2023-01-17T16:31:17.434Z,16.32
2023-01-17T16:33:45.630Z,15.48
2023-01-17T16:36:16.146Z,16.65
2023-01-17T16:38:45.348Z,21.50
2023-01-17T16:41:12.907Z,19.07
2023-01-17T16:43:40.565Z,13.95
2023-01-17T16:46:11.416Z,13.45
2023-01-17T16:48:39.209Z,12.80
2023-01-17T16:51:07.918Z,11.45
2023-01-17T16:53:37.062Z,11.53
2023-01-17T16:56:13.036Z,10.75
2023-01-17T16:58:41.452Z,19.73
2023-01-17T17:01:15.224Z,11.30
2023-01-17T17:03:44.072Z,11.88
2023-01-17T17:06:12.514Z,13.13
2023-01-17T17:08:40.154Z,13.18
2023-01-17T17:11:14.891Z,13.13
2023-01-17T17:13:48.244Z,12.33
2023-01-17T17:16:26.784Z,10.75
2023-01-17T17:18:59.242Z,10.55
2023-01-17T17:21:29.459Z,11.35
2023-01-17T17:23:59.772Z,11.05
2023-01-17T17:26:36.493Z,9.58
2023-01-17T17:29:05.490Z,10.90
2023-01-17T17:31:33.562Z,12.33
2023-01-17T17:34:03.319Z,13.43
2023-01-17T17:36:31.285Z,14.98
2023-01-17T17:39:01.269Z,17.52
2023-01-17T17:41:32.898Z,13.68
2023-01-17T17:44:02.424Z,21.27
2023-01-17T17:46:31.222Z,25.27
2023-01-17T17:48:59.570Z,15.08
2023-01-17T17:51:37.226Z,14.65
2023-01-17T17:54:11.586Z,15.28
2023-01-17T17:56:40.375Z,11.83
2023-01-17T17:59:09.631Z,9.85
2023-01-17T18:01:40.525Z,13.48
2023-01-17T18:04:08.853Z,12.30
2023-01-17T18:06:38.128Z,24.70
2023-01-17T18:09:07.730Z,28.62
2023-01-17T18:11:38.222Z,26.82
2023-01-17T18:14:10.498Z,19.52
2023-01-17T18:16:41.902Z,17.82
2023-01-17T18:19:16.155Z,18.87
2023-01-17T18:21:44.225Z,16.77
2023-01-17T18:24:18.982Z,16.37
2023-01-17T18:26:51.457Z,20.65
2023-01-17T18:29:22.355Z,22.07
2023-01-17T18:31:51.689Z,22.13
2023-01-17T18:34:23.340Z,17.17
2023-01-17T18:36:51.774Z,13.00
2023-01-17T18:39:24.033Z,10.88
2023-01-17T18:41:52.330Z,10.93
2023-01-17T18:44:21.989Z,10.38
2023-01-17T18:46:58.319Z,8.48
2023-01-17T18:49:26.122Z,6.72
2023-01-17T18:51:53.732Z,5.90
2023-01-17T18:54:21.464Z,7.42
2023-01-17T18:56:49.136Z,7.55
2023-01-17T18:59:19.388Z,8.75
2023-01-17T19:01:47.550Z,12.82
2023-01-17T19:04:17.023Z,11.70
2023-01-17T19:06:47.372Z,11.22
2023-01-17T19:09:16.365Z,9.38
2023-01-17T19:11:45.064Z,10.05
2023-01-17T19:14:13.366Z,10.48
2023-01-17T19:16:42.223Z,13.10
2023-01-17T19:19:14.441Z,11.78
2023-01-17T19:21:42.512Z,10.50
2023-01-17T19:24:12.529Z,9.03
2023-01-17T19:26:41.090Z,9.78
2023-01-17T19:29:09.072Z,9.75
2023-01-17T19:31:43.278Z,9.48
2023-01-17T19:34:16.915Z,13.13
2023-01-17T19:39:12.026Z,10.25
2023-01-17T19:41:45.115Z,11.97
2023-01-17T19:44:14.490Z,16.32
2023-01-17T19:46:43.255Z,15.50
2023-01-17T19:49:11.156Z,17.87
2023-01-17T19:51:39.293Z,20.02
2023-01-17T19:54:07.715Z,21.73
2023-01-17T19:56:35.538Z,15.58
2023-01-17T19:59:03.288Z,10.53
2023-01-17T20:01:33.290Z,15.72
2023-01-17T20:04:02.940Z,17.87
2023-01-17T20:06:34.942Z,14.95
2023-01-17T20:09:04.233Z,14.03
2023-01-17T20:11:32.378Z,12.55
2023-01-17T20:14:00.412Z,7.22
2023-01-17T20:16:31.327Z,8.60
2023-01-17T20:19:01.643Z,18.77
2023-01-17T20:21:31.002Z,14.80
2023-01-17T20:24:02.477Z,18.07
2023-01-17T20:26:36.505Z,14.60
2023-01-17T20:29:14.162Z,16.70
2023-01-17T20:31:42.818Z,13.08
2023-01-17T20:34:13.549Z,12.43
2023-01-17T20:36:41.891Z,13.70
2023-01-17T20:39:11.327Z,14.68
2023-01-17T20:41:41.771Z,10.65
2023-01-17T20:44:13.359Z,7.42
2023-01-17T20:46:41.520Z,9.85
2023-01-17T20:49:15.996Z,14.07
2023-01-17T20:51:45.650Z,14.73
2023-01-17T20:54:17.652Z,9.35
2023-01-17T20:56:46.870Z,10.68
2023-01-17T20:59:21.138Z,12.05
2023-01-17T21:01:50.140Z,13.30
2023-01-17T21:04:20.278Z,15.55
2023-01-17T21:06:49.690Z,10.28
2023-01-17T21:09:19.375Z,9.38
2023-01-17T21:11:48.148Z,8.35
2023-01-17T21:14:15.810Z,11.20
2023-01-17T21:16:43.965Z,11.68
2023-01-17T21:19:14.340Z,9.95
2023-01-17T21:21:41.782Z,12.82
2023-01-17T21:24:11.440Z,10.40
2023-01-17T21:26:40.849Z,9.63
2023-01-17T21:29:08.681Z,7.83
2023-01-17T21:31:38.041Z,7.92
2023-01-17T21:34:09.342Z,5.90
2023-01-17T21:36:41.682Z,5.87
2023-01-17T21:39:16.223Z,5.62
2023-01-17T21:41:47.544Z,6.67
2023-01-17T21:44:19.597Z,4.62
2023-01-17T21:46:48.162Z,4.50
2023-01-17T21:49:16.675Z,5.17
2023-01-17T21:51:53.210Z,4.87
2023-01-17T21:54:31.053Z,5.67
2023-01-17T21:57:16.792Z,5.60
2023-01-17T21:59:44.427Z,5.70
2023-01-17T22:02:11.988Z,5.42
2023-01-17T22:04:39.953Z,4.75
2023-01-17T22:07:07.338Z,6.75
2023-01-17T22:09:34.827Z,9.93
2023-01-17T22:12:02.390Z,5.05
2023-01-17T22:14:30.012Z,4.90
2023-01-17T22:16:57.688Z,5.90
2023-01-17T22:19:25.111Z,6.80
2023-01-17T22:21:54.262Z,12.10
2023-01-17T22:24:21.900Z,21.17
2023-01-17T22:26:49.320Z,14.87
2023-01-17T22:29:18.405Z,11.50
2023-01-17T22:31:46.218Z,10.25
2023-01-17T22:34:14.930Z,7.20
2023-01-17T22:36:42.268Z,6.70
2023-01-17T22:39:10.302Z,5.87
2023-01-17T22:41:38.556Z,4.92
2023-01-17T22:44:07.091Z,4.37
2023-01-17T22:46:40.945Z,5.75
2023-01-17T22:49:12.755Z,6.37
2023-01-17T22:51:40.121Z,4.83
2023-01-17T22:54:07.739Z,4.33
2023-01-17T22:56:35.937Z,4.08
2023-01-17T22:59:05.266Z,4.35
2023-01-17T23:01:32.975Z,4.10
2023-01-17T23:04:03.593Z,4.10
2023-01-17T23:06:37.952Z,4.35
2023-01-17T23:09:13.525Z,4.60
2023-01-17T23:11:49.383Z,4.55
2023-01-17T23:14:24.638Z,4.55
2023-01-17T23:17:14.688Z,7.17
2023-01-17T23:19:51.488Z,5.58
2023-01-17T23:22:26.229Z,4.20
2023-01-17T23:25:04.619Z,4.37
2023-01-17T23:27:58.024Z,3.45
2023-01-17T23:30:36.972Z,4.25
2023-01-17T23:33:14.794Z,5.75
2023-01-17T23:35:45.705Z,5.22
2023-01-17T23:38:28.267Z,3.90
2023-01-17T23:41:26.462Z,4.30
2023-01-17T23:43:56.997Z,4.92
2023-01-17T23:46:25.927Z,6.30
2023-01-17T23:48:54.374Z,5.10
2023-01-17T23:51:22.301Z,4.65
2023-01-17T23:53:51.556Z,5.12
2023-01-17T23:56:22.626Z,6.97
2023-01-17T23:58:50.712Z,7.28
